createdAt,value
2022-08-03T00:00:11.806Z,994.76
2022-08-03T00:01:11.737Z,994.79
2022-08-03T00:02:11.760Z,994.74
2022-08-03T00:03:11.794Z,994.74
2022-08-03T00:04:11.695Z,994.77
2022-08-03T00:05:11.656Z,994.74
2022-08-03T00:06:11.684Z,994.74
2022-08-03T00:07:11.683Z,994.73
2022-08-03T00:08:11.695Z,994.74
2022-08-03T00:09:11.655Z,994.74
2022-08-03T00:10:11.613Z,994.74
2022-08-03T00:11:11.699Z,994.73
2022-08-03T00:12:11.784Z,994.71
2022-08-03T00:13:11.679Z,994.72
2022-08-03T00:14:11.749Z,994.74
2022-08-03T00:15:16.727Z,994.72
2022-08-03T00:16:12.632Z,994.74
2022-08-03T00:17:11.609Z,994.70
2022-08-03T00:18:11.583Z,994.72
2022-08-03T00:19:11.773Z,994.72
2022-08-03T00:20:11.570Z,994.69
2022-08-03T00:21:11.557Z,994.70
2022-08-03T00:22:11.535Z,994.71
2022-08-03T00:23:11.583Z,994.67
2022-08-03T00:24:11.520Z,994.67
2022-08-03T00:25:11.509Z,994.69
2022-08-03T00:26:11.518Z,994.69
2022-08-03T00:27:11.505Z,994.69
2022-08-03T00:28:12.705Z,994.64
2022-08-03T00:29:11.449Z,994.73
2022-08-03T00:30:11.492Z,994.74
2022-08-03T00:31:13.513Z,994.69
2022-08-03T00:32:11.466Z,994.67
2022-08-03T00:33:11.427Z,994.72
2022-08-03T00:34:11.374Z,994.69
2022-08-03T00:35:14.760Z,994.68
2022-08-03T00:36:13.395Z,994.68
2022-08-03T00:37:11.404Z,994.67
2022-08-03T00:38:11.423Z,994.66
2022-08-03T00:39:11.352Z,994.73
2022-08-03T00:40:11.342Z,994.70
2022-08-03T00:41:11.371Z,994.71
2022-08-03T00:42:11.488Z,994.69
2022-08-03T00:43:11.361Z,994.67
2022-08-03T00:44:11.288Z,994.67
2022-08-03T00:45:11.342Z,994.67
2022-08-03T00:46:11.408Z,994.71
2022-08-03T00:47:11.285Z,994.69
2022-08-03T00:48:29.483Z,994.65
2022-08-03T00:49:12.297Z,994.68
2022-08-03T00:50:11.218Z,994.68
2022-08-03T00:51:11.285Z,994.69
2022-08-03T00:52:11.256Z,994.68
2022-08-03T00:53:11.211Z,994.62
2022-08-03T00:54:11.185Z,994.65
2022-08-03T00:55:11.171Z,994.66
2022-08-03T00:56:11.204Z,994.66
2022-08-03T00:57:11.200Z,994.68
2022-08-03T00:58:11.184Z,994.66
2022-08-03T00:59:11.145Z,994.64
2022-08-03T01:00:11.113Z,994.57
2022-08-03T01:01:11.255Z,994.61
2022-08-03T01:02:11.118Z,994.65
2022-08-03T01:03:11.132Z,994.58
2022-08-03T01:04:11.164Z,994.58
2022-08-03T01:05:11.085Z,994.60
2022-08-03T01:06:11.127Z,994.60
2022-08-03T01:07:11.241Z,994.61
2022-08-03T01:08:11.091Z,994.57
2022-08-03T01:09:11.123Z,994.68
2022-08-03T01:10:11.051Z,994.63
2022-08-03T01:11:11.133Z,994.64
2022-08-03T01:12:11.146Z,994.64
2022-08-03T01:13:59.080Z,994.59
2022-08-03T01:14:18.941Z,994.64
2022-08-03T01:15:11.055Z,994.62
2022-08-03T01:16:11.129Z,994.55
2022-08-03T01:17:10.970Z,994.64
2022-08-03T01:18:11.656Z,994.61
2022-08-03T01:19:10.997Z,994.63
2022-08-03T01:20:10.981Z,994.61
2022-08-03T01:21:11.992Z,994.61
2022-08-03T01:22:10.962Z,994.63
2022-08-03T01:23:11.133Z,994.61
2022-08-03T01:24:10.961Z,994.61
2022-08-03T01:25:11.040Z,994.61
2022-08-03T01:26:11.036Z,994.63
2022-08-03T01:27:10.921Z,994.61
2022-08-03T01:28:11.373Z,994.61
2022-08-03T01:29:10.881Z,994.58
2022-08-03T01:30:10.908Z,994.64
2022-08-03T01:31:10.888Z,994.61
2022-08-03T01:33:02.301Z,994.58
2022-08-03T01:33:11.904Z,994.60
2022-08-03T01:34:14.611Z,994.63
2022-08-03T01:35:10.954Z,994.65
2022-08-03T01:36:10.802Z,994.65
2022-08-03T01:37:10.927Z,994.67
2022-08-03T01:38:10.978Z,994.64
2022-08-03T01:39:12.045Z,994.62
2022-08-03T01:40:11.025Z,994.59
2022-08-03T01:41:11.107Z,994.58
2022-08-03T01:42:11.097Z,994.55
2022-08-03T01:43:11.168Z,994.66
2022-08-03T01:44:29.220Z,994.60
2022-08-03T01:45:11.817Z,994.59
2022-08-03T01:46:11.692Z,994.62
2022-08-03T01:47:10.697Z,994.55
2022-08-03T01:48:10.745Z,994.57
2022-08-03T01:49:10.833Z,994.62
2022-08-03T01:50:10.699Z,994.59
2022-08-03T01:51:10.668Z,994.58
2022-08-03T01:52:10.649Z,994.60
2022-08-03T01:53:10.710Z,994.57
2022-08-03T01:54:10.670Z,994.55
2022-08-03T01:55:10.677Z,994.62
2022-08-03T01:56:10.614Z,994.63
2022-08-03T01:57:10.641Z,994.61
2022-08-03T01:58:10.600Z,994.58
2022-08-03T01:59:10.604Z,994.56
2022-08-03T02:00:10.634Z,994.54
2022-08-03T02:01:10.617Z,994.49
2022-08-03T02:02:28.326Z,994.54
2022-08-03T02:03:11.592Z,994.57
2022-08-03T02:04:10.564Z,994.52
2022-08-03T02:05:11.318Z,994.51
2022-08-03T02:07:02.356Z,994.52
2022-08-03T02:07:12.485Z,994.48
2022-08-03T02:08:10.505Z,994.55
2022-08-03T02:09:10.450Z,994.48
2022-08-03T02:10:10.540Z,994.51
2022-08-03T02:11:10.490Z,994.53
2022-08-03T02:12:10.423Z,994.57
2022-08-03T02:13:10.461Z,994.50
2022-08-03T02:14:10.548Z,994.53
2022-08-03T02:15:10.445Z,994.54
2022-08-03T02:16:10.396Z,994.47
2022-08-03T02:17:10.406Z,994.49
2022-08-03T02:18:10.478Z,994.52
2022-08-03T02:19:10.472Z,994.48
2022-08-03T02:20:10.560Z,994.52
2022-08-03T02:21:10.874Z,994.55
2022-08-03T02:22:10.322Z,994.46
2022-08-03T02:23:10.558Z,994.55
2022-08-03T02:24:10.426Z,994.53
2022-08-03T02:25:10.430Z,994.53
2022-08-03T02:26:10.394Z,994.50
2022-08-03T02:27:10.368Z,994.49
2022-08-03T02:28:10.419Z,994.53
2022-08-03T02:29:10.284Z,994.54
2022-08-03T02:30:10.362Z,994.52
2022-08-03T02:31:10.294Z,994.54
2022-08-03T02:44:38.294Z,994.56
2022-08-03T02:45:39.078Z,994.52
2022-08-03T02:46:38.444Z,994.55
2022-08-03T02:47:54.117Z,994.51
2022-08-03T02:48:40.197Z,994.49
2022-08-03T02:49:50.419Z,994.50
2022-08-03T02:50:40.101Z,994.49
2022-08-03T02:51:39.048Z,994.56
2022-08-03T02:52:39.374Z,994.56
2022-08-03T02:53:39.120Z,994.48
2022-08-03T02:54:39.112Z,994.50
2022-08-03T02:55:45.673Z,994.49
2022-08-03T02:56:40.442Z,994.47
2022-08-03T02:57:39.160Z,994.48
2022-08-03T02:58:39.046Z,994.50
2022-08-03T02:59:39.042Z,994.53
2022-08-03T03:00:39.026Z,994.51
2022-08-03T03:01:39.041Z,994.51
2022-08-03T03:02:39.122Z,994.52
2022-08-03T03:03:44.689Z,994.47
2022-08-03T03:04:43.140Z,994.44
2022-08-03T03:05:55.856Z,994.45
2022-08-03T03:06:40.028Z,994.42
2022-08-03T03:07:51.446Z,994.46
2022-08-03T03:08:40.019Z,994.47
2022-08-03T03:09:41.989Z,994.42
2022-08-03T03:10:38.935Z,994.39
2022-08-03T03:11:38.922Z,994.44
2022-08-03T03:12:38.964Z,994.44
2022-08-03T03:13:39.087Z,994.42
2022-08-03T03:14:39.318Z,994.39
2022-08-03T03:15:38.983Z,994.44
2022-08-03T03:16:39.365Z,994.49
2022-08-03T03:17:38.969Z,994.48
2022-08-03T03:18:39.289Z,994.46
2022-08-03T03:19:39.194Z,994.50
2022-08-03T03:20:39.289Z,994.41
2022-08-03T03:21:38.818Z,994.50
2022-08-03T03:22:40.002Z,994.45
2022-08-03T03:23:38.887Z,994.45
2022-08-03T03:24:38.805Z,994.51
2022-08-03T03:25:38.860Z,994.48
2022-08-03T03:26:42.371Z,994.45
2022-08-03T03:27:40.068Z,994.50
2022-08-03T03:28:38.931Z,994.53
2022-08-03T03:29:39.443Z,994.49
2022-08-03T03:30:39.732Z,994.44
2022-08-03T03:31:38.818Z,994.45
2022-08-03T03:32:38.790Z,994.45
2022-08-03T03:33:38.787Z,994.44
2022-08-03T03:34:38.745Z,994.43
2022-08-03T03:35:39.238Z,994.50
2022-08-03T03:36:38.798Z,994.47
2022-08-03T03:37:38.745Z,994.47
2022-08-03T03:38:38.709Z,994.45
2022-08-03T03:39:38.670Z,994.44
2022-08-03T03:40:39.034Z,994.44
2022-08-03T03:41:38.762Z,994.44
2022-08-03T03:42:38.744Z,994.47
2022-08-03T03:43:38.861Z,994.48
2022-08-03T03:44:39.157Z,994.47
2022-08-03T03:45:38.540Z,994.44
2022-08-03T03:46:38.676Z,994.48
2022-08-03T03:47:38.530Z,994.48
2022-08-03T03:48:38.492Z,994.46
2022-08-03T03:49:38.660Z,994.51
2022-08-03T03:50:38.500Z,994.51
2022-08-03T03:51:39.509Z,994.49
2022-08-03T03:52:38.554Z,994.50
2022-08-03T03:53:38.557Z,994.56
2022-08-03T03:54:38.452Z,994.45
2022-08-03T03:55:59.042Z,994.47
2022-08-03T03:56:39.509Z,994.48
2022-08-03T03:57:39.565Z,994.47
2022-08-03T03:58:38.765Z,994.52
2022-08-03T03:59:38.432Z,994.48
2022-08-03T04:00:38.568Z,994.47
2022-08-03T04:01:38.473Z,994.49
2022-08-03T04:02:38.482Z,994.49
2022-08-03T04:03:38.431Z,994.43
2022-08-03T04:04:38.429Z,994.44
2022-08-03T04:05:40.940Z,994.54
2022-08-03T04:06:39.452Z,994.46
2022-08-03T04:07:38.475Z,994.51
2022-08-03T04:08:39.383Z,994.49
2022-08-03T04:09:38.449Z,994.52
2022-08-03T04:10:38.303Z,994.58
2022-08-03T04:11:38.281Z,994.53
2022-08-03T04:12:38.334Z,994.57
2022-08-03T04:13:39.345Z,994.62
2022-08-03T04:14:38.329Z,994.49
2022-08-03T04:15:38.332Z,994.62
2022-08-03T04:16:43.131Z,994.47
2022-08-03T04:17:40.179Z,994.48
2022-08-03T04:18:38.311Z,994.50
2022-08-03T04:19:38.185Z,994.51
2022-08-03T04:20:38.203Z,994.51
2022-08-03T04:21:38.288Z,994.54
2022-08-03T04:22:38.233Z,994.58
2022-08-03T04:23:38.180Z,994.50
2022-08-03T04:24:38.136Z,994.57
2022-08-03T04:25:38.225Z,994.55
2022-08-03T04:26:38.140Z,994.56
2022-08-03T04:27:38.136Z,994.56
2022-08-03T04:28:38.130Z,994.56
2022-08-03T04:29:38.628Z,994.59
2022-08-03T04:30:39.246Z,994.63
2022-08-03T04:31:38.261Z,994.62
2022-08-03T04:32:39.999Z,994.61
2022-08-03T04:33:38.121Z,994.63
2022-08-03T04:34:38.079Z,994.59
2022-08-03T04:36:00.968Z,994.64
2022-08-03T04:36:39.064Z,994.65
2022-08-03T04:37:38.052Z,994.64
2022-08-03T04:38:38.091Z,994.67
2022-08-03T04:39:38.114Z,994.62
2022-08-03T04:40:38.017Z,994.66
2022-08-03T04:42:06.913Z,994.70
2022-08-03T04:42:39.084Z,994.71
2022-08-03T04:43:38.000Z,994.71
2022-08-03T04:44:38.017Z,994.66
2022-08-03T04:45:37.948Z,994.73
2022-08-03T04:46:37.968Z,994.71
2022-08-03T04:47:38.055Z,994.70
2022-08-03T04:48:38.121Z,994.69
2022-08-03T04:49:38.068Z,994.78
2022-08-03T04:50:37.933Z,994.79
2022-08-03T04:51:37.977Z,994.77
2022-08-03T04:52:37.960Z,994.80
2022-08-03T04:53:37.885Z,994.77
2022-08-03T04:54:37.892Z,994.75
2022-08-03T04:55:38.066Z,994.78
2022-08-03T04:56:37.917Z,994.78
2022-08-03T04:57:37.761Z,994.74
2022-08-03T04:58:37.877Z,994.73
2022-08-03T04:59:40.844Z,994.71
2022-08-03T05:00:37.882Z,994.77
2022-08-03T05:01:39.813Z,994.81
2022-08-03T05:02:38.142Z,994.75
2022-08-03T05:03:37.849Z,994.81
2022-08-03T05:04:38.092Z,994.81
2022-08-03T05:05:49.908Z,994.78
2022-08-03T05:06:48.178Z,994.78
2022-08-03T05:07:38.807Z,994.76
2022-08-03T05:08:46.228Z,994.80
2022-08-03T05:09:52.658Z,994.72
2022-08-03T05:10:38.870Z,994.75
2022-08-03T05:11:37.715Z,994.73
2022-08-03T05:12:37.794Z,994.78
2022-08-03T05:13:37.685Z,994.71
2022-08-03T05:14:37.628Z,994.76
2022-08-03T05:15:43.285Z,994.75
2022-08-03T05:16:39.556Z,994.76
2022-08-03T05:17:37.735Z,994.79
2022-08-03T05:18:37.827Z,994.80
2022-08-03T05:19:38.240Z,994.75
2022-08-03T05:20:37.926Z,994.74
2022-08-03T05:21:52.564Z,994.74
2022-08-03T05:22:38.868Z,994.76
2022-08-03T05:25:02.849Z,994.70
2022-08-03T05:26:53.554Z,994.74
2022-08-03T05:27:07.116Z,994.75
2022-08-03T05:28:00.106Z,994.69
2022-08-03T05:29:01.049Z,994.71
2022-08-03T05:30:31.431Z,994.71
2022-08-03T05:31:01.459Z,994.71
2022-08-03T05:32:02.610Z,994.70
2022-08-03T05:33:00.581Z,994.77
2022-08-03T05:34:00.316Z,994.75
2022-08-03T05:36:02.211Z,994.69
2022-08-03T05:36:04.248Z,994.67
2022-08-03T05:37:00.122Z,994.74
2022-08-03T05:38:00.002Z,994.72
2022-08-03T05:39:02.810Z,994.71
2022-08-03T05:40:01.170Z,994.74
2022-08-03T05:41:20.596Z,994.75
2022-08-03T05:42:01.165Z,994.71
2022-08-03T05:42:59.944Z,994.69
2022-08-03T05:44:00.007Z,994.67
2022-08-03T05:45:08.616Z,994.72
2022-08-03T05:46:11.572Z,994.73
2022-08-03T05:47:02.151Z,994.67
2022-08-03T05:48:00.953Z,994.63
2022-08-03T05:49:00.381Z,994.67
2022-08-03T05:49:59.803Z,994.67
2022-08-03T05:50:59.794Z,994.63
2022-08-03T05:52:10.312Z,994.68
2022-08-03T05:53:00.815Z,994.67
2022-08-03T05:54:00.029Z,994.67
2022-08-03T05:54:59.833Z,994.69
2022-08-03T05:56:13.038Z,994.74
2022-08-03T05:57:01.808Z,994.75
2022-08-03T05:57:59.763Z,994.70
2022-08-03T05:59:11.363Z,994.67
2022-08-03T06:00:01.813Z,994.69
2022-08-03T06:00:59.763Z,994.76
2022-08-03T06:01:59.820Z,994.78
2022-08-03T06:02:59.730Z,994.79
2022-08-03T06:03:59.784Z,994.80
2022-08-03T06:04:59.880Z,994.84
2022-08-03T06:06:00.208Z,994.75
2022-08-03T06:06:59.682Z,994.77
2022-08-03T06:07:59.664Z,994.77
2022-08-03T06:08:59.827Z,994.75
2022-08-03T06:10:36.502Z,994.81
2022-08-03T06:11:00.709Z,994.81
2022-08-03T06:11:59.649Z,994.78
2022-08-03T06:12:59.590Z,994.82
2022-08-03T06:13:59.650Z,994.86
2022-08-03T06:14:59.696Z,994.84
2022-08-03T06:15:59.569Z,994.81
2022-08-03T06:17:37.594Z,994.81
2022-08-03T06:18:02.203Z,994.77
2022-08-03T06:19:01.542Z,994.78
2022-08-03T06:19:59.677Z,994.76
2022-08-03T06:21:09.574Z,994.76
2022-08-03T06:22:00.599Z,994.78
2022-08-03T06:23:00.189Z,994.77
2022-08-03T06:23:59.531Z,994.75
2022-08-03T06:25:03.423Z,994.80
2022-08-03T06:26:00.515Z,994.75
2022-08-03T06:26:59.505Z,994.77
2022-08-03T06:27:59.459Z,994.79
2022-08-03T06:28:59.564Z,994.77
2022-08-03T06:29:59.434Z,994.80
2022-08-03T06:30:59.493Z,994.79
2022-08-03T06:31:59.430Z,994.84
2022-08-03T06:33:00.433Z,994.83
2022-08-03T06:34:33.305Z,994.82
2022-08-03T06:35:00.356Z,994.84
2022-08-03T06:35:59.501Z,994.78
2022-08-03T06:37:02.174Z,994.81
2022-08-03T06:37:59.365Z,994.81
2022-08-03T06:38:59.397Z,994.77
2022-08-03T06:39:59.349Z,994.81
2022-08-03T06:40:59.330Z,994.82
2022-08-03T06:41:59.334Z,994.80
2022-08-03T06:43:00.101Z,994.79
2022-08-03T06:44:03.444Z,994.80
2022-08-03T06:45:00.274Z,994.83
2022-08-03T06:45:59.310Z,994.87
2022-08-03T06:46:59.253Z,994.85
2022-08-03T06:47:59.282Z,994.75
2022-08-03T06:48:59.316Z,994.76
2022-08-03T06:50:16.456Z,994.75
2022-08-03T06:51:00.256Z,994.83
2022-08-03T06:52:03.798Z,994.79
2022-08-03T06:53:00.206Z,994.76
2022-08-03T06:53:59.208Z,994.75
2022-08-03T06:54:59.217Z,994.80
2022-08-03T06:55:59.135Z,994.76
2022-08-03T06:56:59.177Z,994.73
2022-08-03T06:58:00.005Z,994.70
2022-08-03T06:58:59.159Z,994.73
2022-08-03T07:00:10.768Z,994.75
2022-08-03T07:01:00.187Z,994.71
2022-08-03T07:01:59.757Z,994.75
2022-08-03T07:02:59.098Z,994.73
2022-08-03T07:03:59.103Z,994.81
2022-08-03T07:04:59.078Z,994.75
2022-08-03T07:05:59.644Z,994.75
2022-08-03T07:06:59.058Z,994.69
2022-08-03T07:07:59.159Z,994.74
2022-08-03T07:11:13.819Z,994.73
2022-08-03T07:12:13.926Z,994.69
2022-08-03T07:13:13.723Z,994.67
2022-08-03T07:14:14.215Z,994.67
2022-08-03T07:15:20.626Z,994.74
2022-08-03T07:16:16.097Z,994.68
2022-08-03T07:17:14.832Z,994.74
2022-08-03T07:18:14.873Z,994.68
2022-08-03T07:19:14.858Z,994.76
2022-08-03T07:20:14.842Z,994.71
2022-08-03T07:21:14.797Z,994.73
2022-08-03T07:22:14.857Z,994.76
2022-08-03T07:23:19.034Z,994.67
2022-08-03T07:24:14.858Z,994.77
2022-08-03T07:25:14.789Z,994.72
2022-08-03T07:27:34.251Z,994.79
2022-08-03T07:27:35.874Z,994.73
2022-08-03T07:28:35.826Z,994.76
2022-08-03T07:29:35.932Z,994.78
2022-08-03T07:30:35.807Z,994.76
2022-08-03T07:31:35.806Z,994.76
2022-08-03T07:32:35.762Z,994.73
2022-08-03T07:33:36.874Z,994.75
2022-08-03T07:34:35.864Z,994.71
2022-08-03T07:35:36.449Z,994.65
2022-08-03T07:36:35.813Z,994.69
2022-08-03T07:37:35.833Z,994.73
2022-08-03T07:38:35.923Z,994.75
2022-08-03T07:39:35.832Z,994.70
2022-08-03T07:40:35.976Z,994.77
2022-08-03T07:41:35.699Z,994.76
2022-08-03T07:42:35.716Z,994.70
2022-08-03T07:43:35.809Z,994.70
2022-08-03T07:44:35.638Z,994.68
2022-08-03T07:45:35.696Z,994.66
2022-08-03T07:46:35.749Z,994.76
2022-08-03T07:47:36.078Z,994.72
2022-08-03T07:48:40.754Z,994.73
2022-08-03T07:49:35.890Z,994.77
2022-08-03T07:50:35.953Z,994.70
2022-08-03T07:51:35.863Z,994.65
2022-08-03T07:52:36.669Z,994.72
2022-08-03T07:53:37.816Z,994.71
2022-08-03T07:54:40.655Z,994.65
2022-08-03T07:55:35.865Z,994.69
2022-08-03T07:56:36.165Z,994.68
2022-08-03T07:57:37.390Z,994.65
2022-08-03T07:58:35.576Z,994.65
2022-08-03T07:59:57.118Z,994.68
2022-08-03T08:00:36.765Z,994.71
2022-08-03T08:01:35.549Z,994.66
2022-08-03T08:02:35.543Z,994.63
2022-08-03T08:03:49.877Z,994.65
2022-08-03T08:05:05.797Z,994.62
2022-08-03T08:05:35.721Z,994.69
2022-08-03T08:06:35.607Z,994.64
2022-08-03T08:07:35.450Z,994.62
2022-08-03T08:08:35.500Z,994.69
2022-08-03T08:09:35.445Z,994.62
2022-08-03T08:10:35.466Z,994.66
2022-08-03T08:11:39.720Z,994.64
2022-08-03T08:12:35.387Z,994.68
2022-08-03T08:13:35.395Z,994.59
2022-08-03T08:14:35.415Z,994.64
2022-08-03T08:15:35.410Z,994.61
2022-08-03T08:16:36.363Z,994.53
2022-08-03T08:17:35.374Z,994.52
2022-08-03T08:18:35.363Z,994.50
2022-08-03T08:19:35.308Z,994.53
2022-08-03T08:20:36.560Z,994.53
2022-08-03T08:21:53.946Z,994.53
2022-08-03T08:22:36.298Z,994.52
2022-08-03T08:23:44.149Z,994.45
2022-08-03T08:24:36.270Z,994.55
2022-08-03T08:25:35.899Z,994.52
2022-08-03T08:26:35.285Z,994.50
2022-08-03T08:28:22.307Z,994.49
2022-08-03T08:28:36.261Z,994.37
2022-08-03T08:29:35.263Z,994.45
2022-08-03T08:30:35.343Z,994.45
2022-08-03T08:31:35.258Z,994.49
2022-08-03T08:46:36.613Z,994.42
2022-08-03T08:47:51.067Z,994.38
2022-08-03T08:48:38.889Z,994.35
2022-08-03T08:49:37.907Z,994.39
2022-08-03T08:50:37.786Z,994.33
2022-08-03T08:51:54.601Z,994.27
2022-08-03T08:52:38.741Z,994.30
2022-08-03T08:53:37.727Z,994.26
2022-08-03T08:54:37.666Z,994.27
2022-08-03T08:55:58.491Z,994.32
2022-08-03T08:58:58.603Z,994.29
2022-08-03T09:00:07.315Z,994.27
2022-08-03T09:00:58.802Z,994.27
2022-08-03T09:01:58.579Z,994.20
2022-08-03T09:03:33.638Z,994.20
2022-08-03T09:03:59.941Z,994.24
2022-08-03T09:05:04.049Z,994.23
2022-08-03T09:06:02.610Z,994.23
2022-08-03T09:07:29.181Z,994.27
2022-08-03T09:08:01.856Z,994.28
2022-08-03T09:08:59.674Z,994.21
2022-08-03T09:10:10.427Z,994.20
2022-08-03T09:11:00.854Z,994.21
2022-08-03T09:12:20.025Z,994.21
2022-08-03T09:13:01.715Z,994.18
2022-08-03T09:13:59.645Z,994.13
2022-08-03T09:15:15.958Z,994.05
2022-08-03T09:16:01.727Z,994.09
2022-08-03T09:16:59.553Z,994.03
2022-08-03T09:17:59.581Z,994.05
2022-08-03T09:18:59.614Z,994.09
2022-08-03T09:20:03.722Z,994.05
2022-08-03T09:21:03.790Z,994.04
2022-08-03T09:22:00.551Z,994.05
2022-08-03T09:22:59.422Z,994.02
2022-08-03T09:24:04.282Z,994.06
2022-08-03T09:25:23.349Z,994.05
2022-08-03T09:26:01.843Z,994.05
2022-08-03T09:26:59.411Z,994.03
2022-08-03T09:27:59.376Z,994.07
2022-08-03T09:29:04.676Z,994.09
2022-08-03T09:30:01.476Z,994.07
2022-08-03T09:30:59.400Z,994.10
2022-08-03T09:32:00.416Z,994.08
2022-08-03T09:32:59.558Z,994.11
2022-08-03T09:33:59.497Z,994.03
2022-08-03T09:34:59.392Z,994.02
2022-08-03T09:35:59.457Z,994.06
2022-08-03T09:36:59.309Z,994.07
2022-08-03T09:38:11.849Z,994.05
2022-08-03T09:39:00.369Z,994.06
2022-08-03T09:39:59.557Z,993.99
2022-08-03T09:41:00.579Z,994.04
2022-08-03T09:42:05.115Z,994.08
2022-08-03T09:42:59.225Z,993.96
2022-08-03T09:43:59.339Z,994.02
2022-08-03T09:44:59.896Z,993.96
2022-08-03T09:45:59.247Z,993.93
2022-08-03T09:46:59.319Z,993.96
2022-08-03T09:47:59.173Z,993.93
2022-08-03T09:48:59.755Z,993.93
2022-08-03T09:49:59.930Z,993.89
2022-08-03T09:51:14.409Z,993.89
2022-08-03T09:52:32.367Z,993.93
2022-08-03T09:53:00.889Z,993.96
2022-08-03T09:54:00.603Z,993.89
2022-08-03T09:55:00.670Z,993.87
2022-08-03T09:56:34.378Z,993.86
2022-08-03T09:57:00.712Z,993.81
2022-08-03T09:58:00.156Z,993.83
2022-08-03T09:58:59.565Z,993.76
2022-08-03T10:00:04.590Z,993.82
2022-08-03T10:01:01.192Z,993.81
2022-08-03T10:01:59.066Z,993.76
2022-08-03T10:02:59.069Z,993.78
2022-08-03T10:04:03.065Z,993.79
2022-08-03T10:05:00.082Z,993.81
2022-08-03T10:06:00.015Z,993.83
2022-08-03T10:07:00.320Z,993.81
2022-08-03T10:07:59.030Z,993.84
2022-08-03T10:08:58.999Z,993.85
2022-08-03T10:10:31.199Z,993.79
2022-08-03T10:11:00.806Z,993.79
2022-08-03T10:11:59.058Z,993.77
2022-08-03T10:12:58.917Z,993.75
2022-08-03T10:14:01.434Z,993.77
2022-08-03T10:14:59.101Z,993.75
2022-08-03T10:16:21.971Z,993.72
2022-08-03T10:16:59.957Z,993.72
2022-08-03T10:17:58.952Z,993.70
2022-08-03T10:18:59.153Z,993.78
2022-08-03T10:19:59.002Z,993.77
2022-08-03T10:20:58.929Z,993.71
2022-08-03T10:21:58.913Z,993.67
2022-08-03T10:22:58.873Z,993.68
2022-08-03T10:23:58.956Z,993.64
2022-08-03T10:24:59.423Z,993.69
2022-08-03T10:25:58.873Z,993.65
2022-08-03T10:27:00.312Z,993.65
2022-08-03T10:27:59.250Z,993.64
2022-08-03T10:28:58.793Z,993.59
2022-08-03T10:29:59.040Z,993.63
2022-08-03T10:30:58.916Z,993.59
2022-08-03T10:31:58.920Z,993.58
2022-08-03T10:32:58.781Z,993.59
2022-08-03T10:33:58.798Z,993.62
2022-08-03T10:35:00.256Z,993.58
2022-08-03T10:35:59.773Z,993.62
2022-08-03T10:36:59.137Z,993.58
2022-08-03T10:37:58.994Z,993.60
2022-08-03T10:38:58.786Z,993.60
2022-08-03T10:39:58.699Z,993.55
2022-08-03T10:40:59.317Z,993.59
2022-08-03T10:42:02.620Z,993.54
2022-08-03T10:43:00.333Z,993.55
2022-08-03T10:43:59.800Z,993.52
2022-08-03T10:44:58.760Z,993.48
2022-08-03T10:45:58.701Z,993.52
2022-08-03T10:46:58.734Z,993.54
2022-08-03T10:47:58.733Z,993.54
2022-08-03T10:48:58.692Z,993.56
2022-08-03T10:49:58.716Z,993.55
2022-08-03T10:50:58.825Z,993.56
2022-08-03T10:51:59.385Z,993.49
2022-08-03T10:52:58.591Z,993.53
2022-08-03T10:53:59.062Z,993.54
2022-08-03T10:54:58.662Z,993.47
2022-08-03T10:55:59.101Z,993.40
2022-08-03T10:56:58.793Z,993.43
2022-08-03T10:57:59.846Z,993.50
2022-08-03T10:58:58.608Z,993.42
2022-08-03T10:59:59.629Z,993.41
2022-08-03T11:00:58.547Z,993.43
2022-08-03T11:02:00.626Z,993.44
2022-08-03T11:02:58.578Z,993.41
2022-08-03T11:03:58.709Z,993.39
2022-08-03T11:04:58.553Z,993.43
2022-08-03T11:05:58.715Z,993.43
2022-08-03T11:06:58.782Z,993.39
2022-08-03T11:07:58.427Z,993.43
2022-08-03T11:16:33.185Z,993.34
2022-08-03T11:17:32.907Z,993.25
2022-08-03T11:18:32.597Z,993.30
2022-08-03T11:19:33.743Z,993.21
2022-08-03T11:20:35.996Z,993.27
2022-08-03T11:21:34.001Z,993.25
2022-08-03T11:22:34.844Z,993.20
2022-08-03T11:24:04.714Z,993.20
2022-08-03T11:24:34.628Z,993.23
2022-08-03T11:25:53.815Z,993.22
2022-08-03T11:26:34.618Z,993.15
2022-08-03T11:27:33.693Z,993.21
2022-08-03T11:28:33.589Z,993.17
2022-08-03T11:29:34.384Z,993.19
2022-08-03T11:30:33.606Z,993.13
2022-08-03T11:31:49.197Z,993.18
2022-08-03T11:33:58.272Z,993.17
2022-08-03T11:34:00.144Z,993.14
2022-08-03T11:35:00.275Z,993.10
2022-08-03T11:36:00.154Z,993.14
2022-08-03T11:36:59.963Z,993.22
2022-08-03T11:38:04.360Z,993.19
2022-08-03T11:39:00.947Z,993.11
2022-08-03T11:39:59.908Z,993.14
2022-08-03T11:41:00.793Z,993.13
2022-08-03T11:42:00.069Z,993.14
2022-08-03T11:43:00.000Z,993.09
2022-08-03T11:43:59.863Z,993.09
2022-08-03T11:45:02.372Z,993.08
2022-08-03T11:46:00.075Z,993.11
2022-08-03T11:46:59.828Z,993.15
2022-08-03T11:47:59.781Z,993.12
2022-08-03T11:49:06.519Z,993.09
2022-08-03T11:50:02.306Z,993.13
2022-08-03T11:51:00.263Z,993.06
2022-08-03T11:51:59.901Z,993.02
2022-08-03T11:52:59.834Z,993.02
2022-08-03T11:54:00.002Z,993.04
2022-08-03T11:55:00.022Z,993.10
2022-08-03T11:56:00.199Z,993.11
2022-08-03T11:56:59.750Z,993.09
2022-08-03T11:59:09.362Z,993.08
2022-08-03T11:59:20.408Z,993.06
2022-08-03T12:00:01.841Z,993.02
2022-08-03T12:00:59.867Z,993.10
2022-08-03T12:01:59.733Z,993.12
2022-08-03T12:02:59.858Z,993.11
2022-08-03T12:03:59.653Z,993.10
2022-08-03T12:05:00.269Z,993.08
2022-08-03T12:05:59.701Z,993.03
2022-08-03T12:06:59.828Z,993.03
2022-08-03T12:08:03.864Z,993.05
2022-08-03T12:09:00.921Z,993.03
2022-08-03T12:09:59.636Z,993.05
2022-08-03T12:11:00.109Z,993.08
2022-08-03T12:12:01.130Z,993.07
2022-08-03T12:12:59.621Z,993.08
2022-08-03T12:14:44.471Z,993.08
2022-08-03T12:15:00.597Z,993.04
2022-08-03T12:16:00.268Z,993.03
2022-08-03T12:17:00.640Z,993.07
2022-08-03T12:18:00.644Z,993.00
2022-08-03T12:18:59.864Z,993.05
2022-08-03T12:19:59.513Z,993.05
2022-08-03T12:20:59.700Z,993.03
2022-08-03T12:21:59.548Z,992.97
2022-08-03T12:22:59.637Z,993.02
2022-08-03T12:23:59.631Z,992.97
2022-08-03T12:24:59.482Z,992.98
2022-08-03T12:26:04.572Z,992.96
2022-08-03T12:27:00.504Z,992.94
2022-08-03T12:27:59.590Z,992.94
2022-08-03T12:28:59.515Z,992.84
2022-08-03T12:30:00.493Z,992.89
2022-08-03T12:30:59.492Z,992.84
2022-08-03T12:31:59.511Z,992.82
2022-08-03T12:32:59.443Z,992.90
2022-08-03T12:33:59.568Z,992.85
2022-08-03T12:35:00.070Z,992.83
2022-08-03T12:36:00.435Z,992.78
2022-08-03T12:36:59.625Z,992.82
2022-08-03T12:37:59.904Z,992.82
2022-08-03T12:38:59.760Z,992.83
2022-08-03T12:40:00.556Z,992.76
2022-08-03T12:40:59.299Z,992.69
2022-08-03T12:41:59.989Z,992.75
2022-08-03T12:42:59.438Z,992.74
2022-08-03T12:44:00.687Z,992.77
2022-08-03T12:44:59.541Z,992.76
2022-08-03T12:45:59.514Z,992.78
2022-08-03T12:46:59.259Z,992.83
2022-08-03T12:47:59.313Z,992.75
2022-08-03T12:48:59.331Z,992.75
2022-08-03T12:49:59.267Z,992.80
2022-08-03T12:50:59.311Z,992.75
2022-08-03T12:52:02.678Z,992.78
2022-08-03T12:53:00.608Z,992.73
2022-08-03T12:53:59.250Z,992.72
2022-08-03T12:54:59.253Z,992.76
2022-08-03T12:56:05.674Z,992.71
2022-08-03T12:57:00.423Z,992.74
2022-08-03T12:58:00.068Z,992.73
2022-08-03T12:58:59.251Z,992.79
2022-08-03T12:59:59.273Z,992.77
2022-08-03T13:00:59.161Z,992.73
2022-08-03T13:02:00.834Z,992.77
2022-08-03T13:03:26.543Z,992.83
2022-08-03T13:04:01.280Z,992.78
2022-08-03T13:04:59.230Z,992.76
2022-08-03T13:05:59.166Z,992.78
2022-08-03T13:07:02.573Z,992.80
2022-08-03T13:07:59.235Z,992.78
2022-08-03T13:08:59.080Z,992.79